Denver, CO

6:23 AM MST on December 29, 2014 (GMT -0700)
Geography and Env. Sciences, CU Denver | Change Station
CLOSE
Current Station
Personal Weather Station
Location: Denver, CO
Elevation: 5225 ft
Nearby Weather Stations
Active Advisory: Winter Weather Advisory Active Notice: Public Information Statement

Elev 5225 ft 39.75 °N, 105.00 °W | Updated 3 minutes ago

Overcast
Overcast
21.8 °F
Feels Like 13 °F
N
7.0
Wind Variable Wind from NE
Gusts 17.0 mph

Today
High -- | Low -- °F
--% Chance of Precip.
Yesterday
High -- | Low -- °F
Precip. -- in
7:20 AM 4:43 PM
First Quarter, 59% visible
Pressure 30.18 in
Visibility 10.0 miles
Clouds Few 1000 ft
Overcast 7000 ft
Windchill 13 °F
Dew Point 14 °F
Humidity 70%
Rainfall 0.00 in
Snow Depth Not available.
UV 0.0 out of 12
Pollen .10 out of 12
Air Quality Not available.
Flu Activity Not available.
METAR KAPA 291253Z 31008KT 10SM FEW010 OVC070 M07/M12 A3002 RMK AO2 SLP220 T10721122

More Conditions Fewer Conditions

Pressure 30.18 in
Visibility 10.0 miles
Clouds Few 1000 ft
Overcast 7000 ft
Windchill 13 °F
Dew Point 14 °F
Humidity 70%
Rainfall 0.00 in
Snow Depth Not available.
UV 0.0 out of 12
Pollen .10 out of 12
Air Quality Not available.
Flu Activity Not available.
METAR KAPA 291253Z 31008KT 10SM FEW010 OVC070 M07/M12 A3002 RMK AO2 SLP220 T10721122

More Conditions Fewer Conditions

10-Day Weather Forecast

Almanac

Astronomy

Dec. 29, 2014 Rise Set
Actual Time
Civil Twilight
Nautical Twilight
Astronomical Twilight
Moon
Length of Visible Light
Length of Day
Tomorrow will be .
, % of the Moon is Illuminated

Today's Extremes

State Highs State Lows

Community

WunderPhotos

Upload Photos

1,781,579 photos uploaded!

WunderBlogs® & News

Nearby

Air Quality

  Air Quality AQ Index Pollutant
Not available.

Snow Depth

Station Depth Elevation

Earthquake Activity

City Distance Mag. Time & Date
Minimum magnitude displayed is 2.5.

Coastal Water Temperatures

Place Temperature

Nearby Weather Stations